Time;durP1;ratioP1;P1;durP2;ratioP2;P2;SDS_P1;SDS_P2;PMS_P1;PMS_P2;Temp;Humidity;BMP_temperature;BMP_pressure;BME280_temperature;BME280_humidity;BME280_pressure;Samples;Min_cycle;Max_cycle;Signal;HPM_P1;HPM_P2
2020/12/22 00:00:53;;;;;;;4.07;1.15;;;;;;;13.14;100.00;100796.56;4953835;28;20451;-68
2020/12/22 00:03:19;;;;;;;1.77;1.23;;;;;;;13.18;100.00;100811.34;4954082;28;20062;-69
2020/12/22 00:05:45;;;;;;;4.57;1.38;;;;;;;13.12;100.00;100800.47;4953955;28;20377;-69
2020/12/22 00:08:12;;;;;;;1.23;1.13;;;;;;;13.11;100.00;100817.66;4953479;28;20488;-69
2020/12/22 00:10:38;;;;;;;1.88;1.50;;;;;;;13.06;100.00;100810.13;4953887;28;20518;-69
2020/12/22 00:13:03;;;;;;;2.15;1.17;;;;;;;13.00;100.00;100802.78;4954345;28;20114;-69
2020/12/22 00:15:29;;;;;;;3.85;2.00;;;;;;;12.93;100.00;100812.59;4954015;28;20385;-68
2020/12/22 00:17:55;;;;;;;5.15;1.63;;;;;;;12.98;100.00;100807.50;4953242;29;20507;-68
2020/12/22 00:20:20;;;;;;;2.35;1.70;;;;;;;12.86;100.00;100817.91;4953886;28;20047;-68
2020/12/22 00:22:49;;;;;;;3.60;1.88;;;;;;;12.81;100.00;100804.16;4953400;28;20030;-68
2020/12/22 00:25:15;;;;;;;3.22;1.90;;;;;;;12.83;100.00;100801.25;4953776;28;20023;-68
2020/12/22 00:27:40;;;;;;;3.65;2.05;;;;;;;12.81;100.00;100816.78;4953343;28;20186;-68
2020/12/22 00:30:07;;;;;;;6.32;2.20;;;;;;;12.76;100.00;100803.84;4953543;28;20035;-68
2020/12/22 00:32:33;;;;;;;4.50;3.03;;;;;;;12.75;100.00;100796.81;4953594;28;20031;-68
2020/12/22 00:34:59;;;;;;;7.55;2.90;;;;;;;12.69;100.00;100798.34;4953480;28;20057;-69
2020/12/22 00:37:24;;;;;;;3.97;3.10;;;;;;;12.69;100.00;100806.41;4952145;28;20064;-69
2020/12/22 00:39:50;;;;;;;3.38;2.30;;;;;;;12.66;100.00;100796.03;4953668;28;20141;-69
2020/12/22 00:42:15;;;;;;;7.90;2.70;;;;;;;12.66;100.00;100796.03;4953044;28;20031;-69
2020/12/22 00:44:41;;;;;;;5.10;2.70;;;;;;;12.65;100.00;100807.81;4953793;28;20042;-69
2020/12/22 00:47:07;;;;;;;5.55;2.75;;;;;;;12.68;100.00;100801.22;4952527;28;20035;-68
2020/12/22 00:49:32;;;;;;;5.18;2.72;;;;;;;12.59;100.00;100799.59;4953418;28;20114;-68
2020/12/22 00:51:59;;;;;;;5.03;2.63;;;;;;;12.56;100.00;100805.38;4952875;28;20066;-68
2020/12/22 00:54:25;;;;;;;4.28;2.03;;;;;;;12.56;100.00;100800.81;4953506;28;20126;-68
2020/12/22 00:56:51;;;;;;;4.50;2.10;;;;;;;12.60;100.00;100802.13;4951730;28;20118;-68
2020/12/22 00:59:17;;;;;;;4.00;2.05;;;;;;;12.60;100.00;100810.22;4953882;28;20039;-68
2020/12/22 01:01:43;;;;;;;4.88;1.77;;;;;;;12.61;100.00;100805.66;4952846;28;20399;-69
2020/12/22 01:04:08;;;;;;;7.45;1.83;;;;;;;12.57;100.00;100802.47;4953349;28;20039;-69
2020/12/22 01:06:37;;;;;;;4.70;1.80;;;;;;;12.61;100.00;100803.81;4952103;28;20031;-69
2020/12/22 01:09:04;;;;;;;6.53;1.77;;;;;;;12.60;100.00;100798.56;4953556;28;20054;-69
2020/12/22 01:11:38;;;;;;;4.47;1.92;;;;;;;12.57;100.00;100791.72;4952952;28;20082;-69
2020/12/22 01:14:04;;;;;;;7.15;1.38;;;;;;;12.60;100.00;100823.66;4953377;28;20043;-69
2020/12/22 01:16:30;;;;;;;2.85;1.70;;;;;;;12.53;100.00;100811.94;4952066;28;20054;-69
2020/12/22 01:18:56;;;;;;;5.32;1.65;;;;;;;12.53;100.00;100800.34;4952837;28;20073;-69
2020/12/22 01:21:22;;;;;;;4.35;1.80;;;;;;;12.56;100.00;100816.13;4952558;28;20045;-69
2020/12/22 01:23:48;;;;;;;6.35;1.48;;;;;;;12.53;100.00;100821.84;4952815;28;20027;-68
2020/12/22 01:26:19;;;;;;;4.38;1.60;;;;;;;12.51;100.00;100813.97;4952217;28;20038;-69
2020/12/22 01:28:45;;;;;;;6.15;1.75;;;;;;;12.50;100.00;100804.22;4952756;28;20118;-68
2020/12/22 01:31:10;;;;;;;3.88;1.83;;;;;;;12.53;100.00;100801.16;4952699;28;20429;-68
2020/12/22 01:33:36;;;;;;;2.85;1.50;;;;;;;12.56;100.00;100813.44;4952024;28;20385;-68
2020/12/22 01:36:01;;;;;;;4.03;1.73;;;;;;;12.53;100.00;100829.94;4952304;28;20114;-69
2020/12/22 01:38:27;;;;;;;4.15;1.63;;;;;;;12.49;100.00;100826.75;4951931;28;20058;-68
2020/12/22 01:40:52;;;;;;;3.85;1.55;;;;;;;12.55;100.00;100826.06;4952652;28;20046;-69
2020/12/22 01:43:18;;;;;;;3.45;1.60;;;;;;;12.50;100.00;100816.81;4951048;29;20035;-69
2020/12/22 01:45:44;;;;;;;5.35;2.00;;;;;;;12.47;100.00;100814.50;4952411;28;20570;-69
2020/12/22 01:48:10;;;;;;;7.72;1.70;;;;;;;12.56;100.00;100825.03;4951514;28;20129;-68
2020/12/22 01:50:36;;;;;;;3.28;1.30;;;;;;;12.63;100.00;100833.22;4952313;28;20043;-68
2020/12/22 01:53:02;;;;;;;4.20;2.05;;;;;;;12.65;100.00;100841.94;4952030;28;20038;-69
2020/12/22 01:55:28;;;;;;;4.57;1.40;;;;;;;12.66;100.00;100828.31;4952501;28;20027;-68
2020/12/22 01:57:53;;;;;;;4.82;1.77;;;;;;;12.71;100.00;100843.94;4951576;28;20042;-69
2020/12/22 02:00:19;;;;;;;3.25;1.30;;;;;;;12.68;100.00;100839.72;4952180;28;20035;-69
2020/12/22 02:02:45;;;;;;;4.20;1.20;;;;;;;12.74;100.00;100834.66;4951755;28;20101;-68
2020/12/22 02:05:11;;;;;;;5.13;1.25;;;;;;;12.74;100.00;100840.03;4952319;28;20407;-69
2020/12/22 02:07:37;;;;;;;4.90;1.30;;;;;;;12.76;100.00;100840.69;4951589;28;20046;-69
2020/12/22 02:10:04;;;;;;;6.05;1.20;;;;;;;12.79;100.00;100851.09;4952239;28;20031;-69
2020/12/22 02:12:29;;;;;;;5.50;1.38;;;;;;;12.77;100.00;100861.22;4951830;28;20512;-69
2020/12/22 02:14:55;;;;;;;3.28;1.52;;;;;;;12.76;100.00;100859.53;4952117;28;20039;-69
2020/12/22 02:17:20;;;;;;;6.93;1.35;;;;;;;12.75;100.00;100852.47;4950977;28;20518;-69
2020/12/22 02:19:46;;;;;;;3.22;1.30;;;;;;;12.69;100.00;100857.56;4952000;28;20039;-69
2020/12/22 02:22:12;;;;;;;11.52;2.75;;;;;;;12.68;100.00;100855.88;4951898;28;20090;-69
2020/12/22 02:24:38;;;;;;;10.02;2.00;;;;;;;12.62;100.00;100859.28;4951994;28;20043;-69
2020/12/22 02:27:04;;;;;;;4.90;1.55;;;;;;;12.59;100.00;100870.41;4951069;28;20135;-69
2020/12/22 02:29:31;;;;;;;5.13;1.45;;;;;;;12.59;100.00;100865.03;4952363;28;20492;-68
2020/12/22 02:31:59;;;;;;;4.40;1.60;;;;;;;12.57;100.00;100863.53;4951291;28;20124;-68
2020/12/22 02:34:24;;;;;;;4.75;1.40;;;;;;;12.54;100.00;100867.41;4951634;28;20066;-68
2020/12/22 02:36:51;;;;;;;3.25;1.52;;;;;;;12.56;100.00;100862.72;4950908;28;20499;-67
2020/12/22 02:39:16;;;;;;;2.83;1.70;;;;;;;12.51;100.00;100866.97;4951659;28;20046;-68
2020/12/22 02:41:42;;;;;;;5.57;1.75;;;;;;;12.49;100.00;100874.34;4951585;28;20037;-67
2020/12/22 02:44:08;;;;;;;3.10;1.40;;;;;;;12.44;100.00;100872.19;4951574;28;20031;-68
2020/12/22 02:46:34;;;;;;;2.88;1.50;;;;;;;12.37;100.00;100874.75;4950794;28;20407;-68
2020/12/22 02:49:01;;;;;;;2.70;1.65;;;;;;;12.44;100.00;100873.03;4951615;28;20119;-68
2020/12/22 02:51:30;;;;;;;3.97;1.95;;;;;;;12.37;100.00;100880.16;4951729;28;20152;-68
2020/12/22 02:53:57;;;;;;;6.40;1.80;;;;;;;12.38;100.00;100883.66;4951002;28;20073;-68
2020/12/22 02:56:22;;;;;;;2.88;2.00;;;;;;;12.41;100.00;100884.16;4941405;28;20122;-68
2020/12/22 02:58:51;;;;;;;4.07;1.67;;;;;;;12.40;100.00;100893.25;4948654;29;20110;-67
2020/12/22 03:01:18;;;;;;;5.38;2.00;;;;;;;12.41;100.00;100872.56;4951337;28;20744;-68
2020/12/22 03:03:45;;;;;;;4.40;2.10;;;;;;;12.42;100.00;100890.38;4951238;28;20551;-68
2020/12/22 03:06:11;;;;;;;3.90;1.77;;;;;;;12.40;100.00;100881.66;4951343;28;20062;-68
2020/12/22 03:08:36;;;;;;;5.20;1.70;;;;;;;12.38;100.00;100884.50;4950579;28;20063;-68
2020/12/22 03:11:03;;;;;;;4.20;1.70;;;;;;;12.34;100.00;100883.19;4951370;28;20074;-68
2020/12/22 03:13:29;;;;;;;2.38;1.52;;;;;;;12.36;100.00;100881.16;4950732;28;20058;-69
2020/12/22 03:16:00;;;;;;;1.65;1.30;;;;;;;12.39;100.00;100888.03;4951525;28;20115;-68
2020/12/22 03:18:31;;;;;;;3.13;1.45;;;;;;;12.39;100.00;100890.72;4949641;28;20514;-68
2020/12/22 03:20:57;;;;;;;3.60;1.50;;;;;;;12.38;100.00;100895.25;4951215;28;20040;-68
2020/12/22 03:23:22;;;;;;;2.70;1.20;;;;;;;12.37;100.00;100890.91;4950867;28;20031;-69
2020/12/22 03:25:48;;;;;;;3.30;1.40;;;;;;;12.38;100.00;100892.56;4951481;28;20383;-69
2020/12/22 03:28:14;;;;;;;2.45;1.77;;;;;;;12.39;100.00;100888.03;4950110;28;20027;-69
2020/12/22 03:30:39;;;;;;;3.05;1.20;;;;;;;12.36;100.00;100885.72;4951540;28;20036;-69
2020/12/22 03:33:05;;;;;;;2.45;1.60;;;;;;;12.39;100.00;100886.19;4950633;28;20554;-69
2020/12/22 03:35:30;;;;;;;4.22;1.40;;;;;;;12.41;100.00;100894.09;4950077;29;20532;-69
2020/12/22 03:37:57;;;;;;;4.38;1.70;;;;;;;12.35;100.00;100890.25;4950097;28;20031;-69
2020/12/22 03:40:22;;;;;;;1.92;1.23;;;;;;;12.38;100.00;100899.81;4951309;28;20503;-68
2020/12/22 03:42:48;;;;;;;3.70;1.20;;;;;;;12.40;100.00;100898.63;4950251;28;20036;-69
2020/12/22 03:45:16;;;;;;;1.90;1.30;;;;;;;12.41;100.00;100894.09;4951235;28;20399;-69
2020/12/22 03:47:43;;;;;;;3.97;1.08;;;;;;;12.46;100.00;100899.78;4949217;28;20086;-69
2020/12/22 03:50:08;;;;;;;3.22;1.30;;;;;;;12.43;100.00;100903.66;4949151;28;20046;-69
2020/12/22 03:52:36;;;;;;;2.15;1.30;;;;;;;12.41;100.00;100908.38;4950407;28;20035;-68
2020/12/22 03:55:03;;;;;;;2.67;1.58;;;;;;;12.42;100.00;100911.91;4950991;28;20035;-69
2020/12/22 03:57:29;;;;;;;3.85;1.60;;;;;;;12.46;100.00;100907.00;4950148;28;20559;-69
2020/12/22 03:59:54;;;;;;;4.13;1.35;;;;;;;12.47;100.00;100914.06;4950980;28;20090;-69
2020/12/22 04:02:20;;;;;;;3.63;1.40;;;;;;;12.47;100.00;100922.13;4950691;28;20130;-69
2020/12/22 04:04:45;;;;;;;1.92;1.42;;;;;;;12.47;100.00;100922.13;4950571;28;20082;-69
2020/12/22 04:07:11;;;;;;;1.58;1.30;;;;;;;12.50;100.00;100916.38;4950277;28;20031;-69
2020/12/22 04:09:36;;;;;;;1.48;1.27;;;;;;;12.58;100.00;100916.34;4950709;28;20504;-69
2020/12/22 04:12:02;;;;;;;2.30;1.58;;;;;;;12.59;100.00;100912.63;4950336;28;20493;-69
2020/12/22 04:14:27;;;;;;;2.72;1.60;;;;;;;12.47;100.00;100912.22;4950797;28;20538;-69
2020/12/22 04:16:53;;;;;;;5.45;1.58;;;;;;;12.49;100.00;100909.34;4950778;28;20027;-69
2020/12/22 04:19:19;;;;;;;3.58;1.30;;;;;;;12.48;100.00;100911.19;4950573;28;20472;-67
2020/12/22 04:21:46;;;;;;;1.73;1.58;;;;;;;12.46;100.00;100913.22;4950345;28;20035;-67
2020/12/22 04:24:12;;;;;;;5.05;1.63;;;;;;;12.50;100.00;100914.56;4949464;28;20085;-67
2020/12/22 04:26:37;;;;;;;2.95;1.77;;;;;;;12.50;100.00;100911.88;4949609;28;20039;-67
2020/12/22 04:29:04;;;;;;;1.90;1.40;;;;;;;12.55;100.00;100917.56;4950053;28;20103;-67
2020/12/22 04:31:29;;;;;;;2.95;1.20;;;;;;;12.60;100.00;100919.69;4951635;28;20061;-67
2020/12/22 04:33:56;;;;;;;2.20;1.45;;;;;;;12.62;100.00;100923.88;4953592;28;20067;-67
2020/12/22 04:36:23;;;;;;;3.20;1.27;;;;;;;12.58;100.00;100921.72;4953285;29;20030;-67
2020/12/22 04:38:50;;;;;;;1.70;1.48;;;;;;;12.57;100.00;100925.44;4954145;28;20052;-67
2020/12/22 04:41:18;;;;;;;2.00;1.33;;;;;;;12.64;100.00;100929.09;4953663;28;20031;-67
2020/12/22 04:43:46;;;;;;;3.00;1.40;;;;;;;12.58;100.00;100935.19;4953828;28;20055;-67
2020/12/22 04:46:16;;;;;;;1.27;1.00;;;;;;;12.60;100.00;100925.94;4953501;28;20496;-67
2020/12/22 04:48:45;;;;;;;1.65;1.23;;;;;;;12.64;100.00;100938.00;4953335;28;20031;-67
2020/12/22 04:51:11;;;;;;;2.05;1.13;;;;;;;12.66;100.00;100938.69;4953724;28;20062;-67
2020/12/22 04:53:37;;;;;;;1.10;1.00;;;;;;;12.67;100.00;100940.34;4952757;28;20074;-67
2020/12/22 04:56:06;;;;;;;1.80;1.20;;;;;;;12.70;100.00;100949.91;4946085;28;20023;-67
2020/12/22 04:58:32;;;;;;;2.08;0.90;;;;;;;12.65;100.00;100949.59;4948081;29;20396;-67
2020/12/22 05:00:59;;;;;;;1.95;1.38;;;;;;;12.72;100.00;100947.06;4953395;28;20516;-67
2020/12/22 05:03:25;;;;;;;1.23;0.85;;;;;;;12.78;100.00;100949.03;4953023;28;20117;-67
2020/12/22 05:05:52;;;;;;;5.28;1.00;;;;;;;12.78;100.00;100962.50;4953191;28;20623;-67
2020/12/22 05:08:17;;;;;;;2.90;0.80;;;;;;;12.78;100.00;100957.09;4952483;28;20614;-67
2020/12/22 05:10:45;;;;;;;0.93;0.63;;;;;;;12.80;100.00;100947.84;4953040;28;20121;-67
2020/12/22 05:13:12;;;;;;;3.97;0.80;;;;;;;12.75;100.00;100961.00;4953454;28;20035;-67
2020/12/22 05:15:48;;;;;;;1.63;0.80;;;;;;;12.75;100.00;100952.94;4953248;28;20038;-67
2020/12/22 05:18:14;;;;;;;0.95;0.82;;;;;;;12.74;100.00;100953.09;4952803;28;20039;-67
2020/12/22 05:20:41;;;;;;;1.70;0.93;;;;;;;12.84;100.00;100959.91;4952543;28;20035;-67
2020/12/22 05:23:22;;;;;;;1.63;0.75;;;;;;;12.82;100.00;100969.19;4953128;28;20081;-67
2020/12/22 05:25:50;;;;;;;0.80;0.60;;;;;;;12.86;100.00;100975.91;4952812;28;20484;-67
2020/12/22 05:28:18;;;;;;;1.50;0.65;;;;;;;12.87;100.00;100986.50;4952220;28;20027;-67
2020/12/22 05:30:45;;;;;;;0.50;0.50;;;;;;;12.83;100.00;100977.09;4952788;28;20031;-67
2020/12/22 05:33:11;;;;;;;0.95;0.65;;;;;;;12.86;100.00;100976.75;4952474;29;20031;-67
2020/12/22 05:35:38;;;;;;;1.17;0.70;;;;;;;12.88;100.00;100990.84;4952625;28;20307;-67
2020/12/22 05:38:05;;;;;;;0.75;0.50;;;;;;;12.92;100.00;100986.81;4951929;28;20047;-67
2020/12/22 05:40:31;;;;;;;2.15;0.65;;;;;;;13.01;100.00;101001.06;4952506;28;20027;-67
2020/12/22 05:42:58;;;;;;;3.58;0.63;;;;;;;13.00;100.00;101004.75;4952430;28;20034;-69
2020/12/22 05:45:24;;;;;;;0.60;0.60;;;;;;;13.02;100.00;100999.19;4952263;28;20081;-67
2020/12/22 05:47:53;;;;;;;0.85;0.77;;;;;;;13.07;100.00;101004.88;4951768;28;20519;-67
2020/12/22 05:50:20;;;;;;;0.77;0.60;;;;;;;13.01;100.00;101008.31;4952074;28;20514;-67
2020/12/22 05:52:46;;;;;;;2.08;0.55;;;;;;;13.06;100.00;101001.34;4952482;28;20035;-67
2020/12/22 05:55:12;;;;;;;0.85;0.57;;;;;;;13.10;100.00;101004.50;4951206;28;20086;-67
2020/12/22 05:57:37;;;;;;;2.97;0.73;;;;;;;13.05;100.00;101005.06;4939763;29;20117;-67
2020/12/22 06:00:14;;;;;;;2.45;0.73;;;;;;;13.09;100.00;101005.53;4951185;28;20118;-67
2020/12/22 06:02:41;;;;;;;2.25;0.50;;;;;;;13.12;100.00;101015.97;4952168;28;20122;-67
2020/12/22 06:05:06;;;;;;;3.53;0.60;;;;;;;13.16;100.00;101018.13;4952127;28;20082;-67
2020/12/22 06:07:32;;;;;;;2.90;0.55;;;;;;;13.10;100.00;101018.84;4951964;28;20024;-67
2020/12/22 06:09:57;;;;;;;4.18;0.75;;;;;;;13.11;100.00;101025.06;4952005;28;20035;-67
2020/12/22 06:12:24;;;;;;;2.85;0.80;;;;;;;13.17;100.00;101022.47;4952468;28;20492;-68
2020/12/22 06:14:51;;;;;;;1.70;0.65;;;;;;;13.14;100.00;101030.91;4951403;28;20402;-67
2020/12/22 06:17:19;;;;;;;3.72;0.63;;;;;;;13.18;100.00;101029.53;4951770;28;20387;-67
2020/12/22 06:19:46;;;;;;;1.98;0.73;;;;;;;13.19;100.00;101027.69;4951542;28;20032;-67
2020/12/22 06:22:13;;;;;;;3.33;0.50;;;;;;;13.05;100.00;101037.41;4952132;28;20067;-67
2020/12/22 06:24:40;;;;;;;1.38;0.40;;;;;;;13.14;100.00;101033.59;4951542;28;20035;-66
2020/12/22 06:27:07;;;;;;;0.50;0.47;;;;;;;13.13;100.00;101034.63;4951725;28;20039;-67
2020/12/22 06:29:34;;;;;;;1.55;0.47;;;;;;;13.10;100.00;101034.13;4951341;28;20027;-67
2020/12/22 06:32:28;;;;;;;2.17;0.60;;;;;;;13.06;100.00;101049.84;4952210;28;20027;-67
2020/12/22 06:34:55;;;;;;;1.83;0.77;;;;;;;13.00;100.00;101060.47;4949509;29;20086;-68
2020/12/22 06:37:23;;;;;;;3.22;0.55;;;;;;;12.96;100.00;101060.00;4951049;28;20104;-67
2020/12/22 06:39:50;;;;;;;4.03;0.60;;;;;;;12.95;100.00;101053.78;4951237;28;20035;-67
2020/12/22 06:42:40;;;;;;;1.17;0.40;;;;;;;12.92;100.00;101061.34;4951871;28;20118;-67
2020/12/22 06:45:22;;;;;;;2.30;0.60;;;;;;;12.91;100.00;101059.69;4951192;28;20089;-67
2020/12/22 06:47:48;;;;;;;1.98;0.47;;;;;;;12.93;100.00;101060.34;4951045;28;20044;-67
2020/12/22 06:50:35;;;;;;;2.80;0.60;;;;;;;12.92;100.00;101058.66;4951489;28;20030;-67
2020/12/22 06:53:01;;;;;;;4.22;0.70;;;;;;;12.89;100.00;101059.00;4952072;28;20052;-67
2020/12/22 06:55:48;;;;;;;1.52;0.60;;;;;;;13.06;100.00;101059.78;4950659;28;20596;-67
2020/12/22 06:58:35;;;;;;;4.32;0.73;;;;;;;13.05;100.00;101069.72;4951329;28;20071;-67
2020/12/22 07:01:24;;;;;;;2.33;0.50;;;;;;;13.03;100.00;101070.88;4951391;28;20070;-67
2020/12/22 07:03:51;;;;;;;5.82;0.98;;;;;;;13.09;100.00;101078.25;4951699;28;20500;-67
2020/12/22 07:06:50;;;;;;;1.65;0.50;;;;;;;13.14;100.00;101090.19;4950892;28;20035;-67
2020/12/22 07:09:25;;;;;;;3.88;0.55;;;;;;;13.12;100.00;101089.53;4941031;29;20031;-67
2020/12/22 07:11:53;;;;;;;2.40;0.57;;;;;;;13.12;100.00;101094.91;4950904;28;20027;-67
2020/12/22 07:14:20;;;;;;;6.38;0.60;;;;;;;13.01;100.00;101100.69;4951337;28;20581;-67
2020/12/22 07:16:53;;;;;;;3.38;0.68;;;;;;;13.02;100.00;101109.63;4950599;28;20027;-67
2020/12/22 07:19:28;;;;;;;1.80;0.60;;;;;;;13.02;100.00;101109.63;4951253;28;20046;-67
2020/12/22 07:21:57;;;;;;;1.55;0.50;;;;;;;12.96;100.00;101103.09;4938485;29;20451;-67
2020/12/22 07:24:24;;;;;;;5.32;0.50;;;;;;;12.85;100.00;101111.53;4950065;28;20031;-66
2020/12/22 07:26:50;;;;;;;4.88;0.63;;;;;;;12.75;100.00;101121.66;4950379;28;20036;-67
2020/12/22 07:29:15;;;;;;;1.77;0.47;;;;;;;12.66;100.00;101129.78;4951129;28;20046;-66
2020/12/22 07:31:42;;;;;;;3.28;0.60;;;;;;;12.58;100.00;101120.88;4950892;28;20086;-66
2020/12/22 07:34:09;;;;;;;1.38;0.50;;;;;;;12.53;100.00;101126.78;4950535;28;20034;-66
2020/12/22 07:36:34;;;;;;;3.47;0.73;;;;;;;12.50;100.00;101139.72;4950120;28;20034;-66
2020/12/22 07:39:18;;;;;;;3.90;0.70;;;;;;;12.44;100.00;101143.94;4951101;28;20031;-66
2020/12/22 07:41:45;;;;;;;4.05;0.90;;;;;;;12.41;100.00;101141.63;4950627;29;20122;-66
2020/12/22 07:44:13;;;;;;;3.42;0.60;;;;;;;12.40;100.00;101145.31;4951005;28;20038;-66
2020/12/22 07:46:40;;;;;;;1.85;0.52;;;;;;;12.45;100.00;101151.03;4945875;29;20031;-67
2020/12/22 07:49:07;;;;;;;3.55;0.80;;;;;;;12.44;100.00;101150.16;4947818;29;20035;-68
2020/12/22 07:51:34;;;;;;;1.60;0.60;;;;;;;12.38;100.00;101156.25;4950474;28;20046;-67
2020/12/22 07:54:03;;;;;;;2.22;0.80;;;;;;;12.38;100.00;101166.16;4950694;28;20444;-67
2020/12/22 07:56:31;;;;;;;3.85;0.90;;;;;;;12.34;100.00;101170.19;4949554;28;20031;-67
2020/12/22 07:58:57;;;;;;;6.80;0.90;;;;;;;12.39;100.00;101162.47;4949722;28;20035;-67
2020/12/22 08:01:23;;;;;;;1.90;0.80;;;;;;;12.35;100.00;101180.81;4949095;28;20059;-67
2020/12/22 08:03:49;;;;;;;3.65;0.90;;;;;;;12.35;100.00;101179.94;4950872;28;20042;-67
2020/12/22 08:06:14;;;;;;;4.72;0.68;;;;;;;12.38;100.00;101182.31;4951971;28;20027;-67
2020/12/22 08:08:40;;;;;;;3.70;0.70;;;;;;;12.40;100.00;101183.00;4954502;28;20031;-67
2020/12/22 08:11:06;;;;;;;4.78;0.95;;;;;;;12.51;100.00;101185.31;4954252;28;20407;-67
2020/12/22 08:13:35;;;;;;;1.58;0.50;;;;;;;12.54;100.00;101184.97;4938769;28;20038;-67
2020/12/22 08:16:01;;;;;;;2.25;0.75;;;;;;;12.55;100.00;101191.19;4946471;29;20027;-67
2020/12/22 08:18:31;;;;;;;1.98;0.68;;;;;;;12.61;100.00;101191.38;4950034;29;20043;-67
2020/12/22 08:20:59;;;;;;;2.35;0.60;;;;;;;12.60;100.00;101191.50;4953006;28;20622;-67
2020/12/22 08:23:26;;;;;;;5.15;0.50;;;;;;;12.57;100.00;101208.03;4952985;28;20031;-67
2020/12/22 08:25:52;;;;;;;2.95;0.73;;;;;;;12.58;100.00;101205.16;4951754;29;20062;-67
2020/12/22 08:28:23;;;;;;;4.03;0.60;;;;;;;12.60;100.00;101205.84;4939001;29;20061;-67
2020/12/22 08:30:49;;;;;;;2.78;0.60;;;;;;;12.64;100.00;101220.59;4952652;28;20023;-67
2020/12/22 08:33:18;;;;;;;5.00;1.42;;;;;;;12.61;100.00;101226.34;4952194;28;20027;-67
2020/12/22 08:35:47;;;;;;;4.25;0.80;;;;;;;12.57;100.00;101227.69;4952360;28;20034;-67
2020/12/22 08:38:20;;;;;;;2.13;0.50;;;;;;;12.62;100.00;101230.72;4952241;28;20042;-67
2020/12/22 08:40:46;;;;;;;5.00;0.60;;;;;;;12.64;100.00;101244.84;4952522;28;20031;-68
2020/12/22 08:43:12;;;;;;;1.40;0.73;;;;;;;12.64;100.00;101242.16;4952404;28;20484;-68
2020/12/22 08:45:41;;;;;;;2.75;0.40;;;;;;;12.64;100.00;101247.53;4952445;28;20035;-67
2020/12/22 08:48:07;;;;;;;2.75;0.70;;;;;;;12.64;100.00;101244.84;4952082;28;20062;-67
2020/12/22 08:50:46;;;;;;;1.23;0.40;;;;;;;12.68;100.00;101256.94;4967853;28;20109;-67
2020/12/22 08:53:14;;;;;;;1.20;0.50;;;;;;;12.68;100.00;101258.81;4951755;28;20035;-68
2020/12/22 08:55:39;;;;;;;2.78;0.73;;;;;;;12.67;100.00;101260.66;4951881;28;20027;-67
2020/12/22 08:58:05;;;;;;;0.47;0.40;;;;;;;12.76;100.00;101257.97;4951590;28;20106;-67
2020/12/22 09:00:30;;;;;;;1.17;0.68;;;;;;;12.72;100.00;101262.00;4952157;28;20094;-67
2020/12/22 09:02:56;;;;;;;2.80;0.50;;;;;;;12.72;100.00;101272.78;4951268;28;20058;-67
2020/12/22 09:05:23;;;;;;;1.75;0.47;;;;;;;12.77;100.00;101255.09;4951831;28;20035;-67
2020/12/22 09:07:59;;;;;;;3.22;0.47;;;;;;;12.76;100.00;101261.50;4950666;28;20149;-67
2020/12/22 09:10:25;;;;;;;0.85;0.50;;;;;;;12.79;100.00;101273.75;4952425;28;20461;-67
2020/12/22 09:12:51;;;;;;;1.40;0.43;;;;;;;12.87;100.00;101274.59;4951690;28;20037;-67
2020/12/22 09:15:17;;;;;;;3.05;0.60;;;;;;;12.95;100.00;101279.13;4952101;28;20066;-67
2020/12/22 09:17:43;;;;;;;2.90;0.50;;;;;;;12.94;100.00;101285.53;4965319;28;20563;-67
2020/12/22 09:20:08;;;;;;;2.10;0.52;;;;;;;12.96;100.00;101288.91;4951936;28;20031;-67
2020/12/22 09:22:35;;;;;;;3.17;0.50;;;;;;;12.92;100.00;101301.84;4950816;28;20047;-67
2020/12/22 09:25:04;;;;;;;3.80;0.70;;;;;;;12.84;100.00;101303.72;4951589;28;20034;-67
2020/12/22 09:27:31;;;;;;;0.80;0.50;;;;;;;12.82;100.00;101309.28;4950412;28;20482;-67
2020/12/22 09:29:57;;;;;;;5.57;1.38;;;;;;;12.85;100.00;101316.16;4949963;29;20563;-67
2020/12/22 09:32:23;;;;;;;3.25;0.50;;;;;;;12.80;100.00;101313.13;4950229;28;20031;-67
2020/12/22 09:34:49;;;;;;;4.15;0.80;;;;;;;12.72;100.00;101323.91;4950651;28;20031;-67
2020/12/22 09:37:15;;;;;;;2.75;1.13;;;;;;;12.73;100.00;101306.75;4965603;28;20130;-67
2020/12/22 09:39:40;;;;;;;4.07;1.65;;;;;;;12.71;100.00;101323.09;4951138;28;20063;-67
2020/12/22 09:42:06;;;;;;;3.03;1.05;;;;;;;12.68;100.00;101326.94;4950090;28;20403;-67
2020/12/22 09:44:34;;;;;;;3.80;1.48;;;;;;;12.61;100.00;101327.78;4951367;28;20528;-67
2020/12/22 09:46:59;;;;;;;2.47;1.10;;;;;;;12.65;100.00;101329.13;4950306;28;20155;-67
2020/12/22 09:49:25;;;;;;;2.92;1.00;;;;;;;12.64;100.00;101340.91;4950340;28;20038;-67
2020/12/22 09:51:52;;;;;;;4.93;1.55;;;;;;;12.58;100.00;101334.34;4950131;28;20070;-67
2020/12/22 09:54:18;;;;;;;2.15;0.90;;;;;;;12.57;100.00;101354.19;4948998;29;20434;-67
2020/12/22 09:56:44;;;;;;;4.10;1.00;;;;;;;12.62;100.00;101342.94;4937094;28;20686;-67
2020/12/22 09:59:10;;;;;;;4.43;1.20;;;;;;;12.51;100.00;101354.88;4950178;28;20027;-67
2020/12/22 10:01:36;;;;;;;7.93;1.33;;;;;;;12.52;100.00;101361.94;4950150;28;20062;-67
2020/12/22 10:04:01;;;;;;;4.25;1.25;;;;;;;12.43;100.00;101355.69;4949564;28;20027;-67
2020/12/22 10:06:27;;;;;;;2.75;1.40;;;;;;;12.47;100.00;101356.19;4950353;28;20041;-67
2020/12/22 10:08:55;;;;;;;5.03;1.10;;;;;;;12.54;100.00;101359.91;4949926;28;20082;-67
2020/12/22 10:11:21;;;;;;;5.68;3.03;;;;;;;12.58;100.00;101363.09;4950181;28;20509;-66
2020/12/22 10:13:47;;;;;;;3.85;1.70;;;;;;;12.47;100.00;101356.19;4949830;28;20027;-67
2020/12/22 10:16:15;;;;;;;6.57;2.40;;;;;;;12.48;100.00;101365.94;4950444;28;20054;-67
2020/12/22 10:18:41;;;;;;;17.52;7.82;;;;;;;12.46;100.00;101359.06;4949296;28;20133;-67
2020/12/22 10:21:09;;;;;;;10.68;4.43;;;;;;;12.38;100.00;101368.78;4950254;28;20524;-67
2020/12/22 10:23:36;;;;;;;14.75;6.60;;;;;;;12.31;100.00;101365.09;4948664;29;20114;-66
2020/12/22 10:26:05;;;;;;;14.60;4.60;;;;;;;12.20;100.00;101376.16;4949899;28;20031;-66
2020/12/22 10:28:34;;;;;;;6.38;1.95;;;;;;;12.25;100.00;101367.56;4949700;28;20548;-67
2020/12/22 10:31:00;;;;;;;12.70;5.55;;;;;;;12.31;100.00;101372.31;4949836;28;20035;-67
2020/12/22 10:33:26;;;;;;;11.57;4.38;;;;;;;12.29;100.00;101377.84;4949315;29;20507;-67
2020/12/22 10:35:53;;;;;;;9.98;3.50;;;;;;;12.26;100.00;101374.66;4949628;29;20377;-67
2020/12/22 10:38:19;;;;;;;5.40;1.48;;;;;;;12.25;100.00;101383.72;4950749;28;20035;-67
2020/12/22 10:40:45;;;;;;;4.15;1.13;;;;;;;12.22;100.00;101387.59;4950636;28;20035;-67
2020/12/22 10:43:11;;;;;;;17.10;9.23;;;;;;;12.26;100.00;101383.56;4948268;29;20311;-67
2020/12/22 10:45:37;;;;;;;3.10;1.42;;;;;;;12.22;100.00;101389.44;4947562;29;20117;-67
2020/12/22 10:48:05;;;;;;;7.30;2.35;;;;;;;12.30;100.00;101376.88;4964549;28;20037;-67
2020/12/22 10:50:30;;;;;;;3.50;1.80;;;;;;;12.28;100.00;101372.66;4950035;28;20062;-67
2020/12/22 10:52:56;;;;;;;5.03;1.70;;;;;;;12.36;100.00;101368.13;4950607;28;20069;-67
2020/12/22 10:55:23;;;;;;;4.45;1.20;;;;;;;12.35;100.00;101373.66;4949395;28;20039;-67
2020/12/22 10:57:50;;;;;;;4.18;1.42;;;;;;;12.30;100.00;101368.78;4950406;28;20826;-67
2020/12/22 11:00:16;;;;;;;5.10;1.70;;;;;;;12.33;100.00;101373.00;4949708;28;20043;-67
2020/12/22 11:02:44;;;;;;;4.50;1.55;;;;;;;12.35;100.00;101379.03;4948305;28;20027;-67
2020/12/22 11:05:10;;;;;;;4.10;1.50;;;;;;;12.42;100.00;101380.06;4949653;28;20058;-66
2020/12/22 11:10:01;;;;;;;8.27;1.58;;;;;;;12.57;100.00;101372.19;4949780;28;20141;-67
2020/12/22 11:12:27;;;;;;;5.40;1.75;;;;;;;12.68;100.00;101374.56;4949945;28;20448;-67
2020/12/22 11:14:52;;;;;;;4.03;1.90;;;;;;;12.69;100.00;101369.00;4949837;28;20055;-67
2020/12/22 11:17:18;;;;;;;6.85;2.50;;;;;;;12.79;100.00;101368.84;4950017;28;20035;-67
2020/12/22 11:19:44;;;;;;;9.02;2.13;;;;;;;12.80;100.00;101364.28;4949916;28;20381;-67